Time;durP1;ratioP1;P1;durP2;ratioP2;P2;SDS_P1;SDS_P2;PMS_P1;PMS_P2;Temp;Humidity;BMP_temperature;BMP_pressure;BME280_temperature;BME280_humidity;BME280_pressure;Samples;Min_cycle;Max_cycle;Signal;HPM_P1;HPM_P2
2021/05/12 00:01:50;;;;;;;1.35;1.30;;;11.80;99.90;;;;;;5013977;28;20037;-71
2021/05/12 00:04:16;;;;;;;3.17;1.60;;;11.80;99.90;;;;;;5013473;28;20388;-71
2021/05/12 00:06:42;;;;;;;1.80;1.70;;;11.80;99.90;;;;;;5013826;28;20030;-72
2021/05/12 00:09:07;;;;;;;3.00;1.88;;;11.90;99.90;;;;;;5013691;28;20025;-72
2021/05/12 00:11:33;;;;;;;1.80;1.48;;;11.90;99.90;;;;;;5013899;28;20550;-70
2021/05/12 00:13:59;;;;;;;2.05;1.35;;;12.00;99.90;;;;;;5013416;28;20022;-71
2021/05/12 00:16:25;;;;;;;2.75;1.63;;;12.00;99.90;;;;;;5013998;28;20033;-71
2021/05/12 00:18:51;;;;;;;1.85;1.20;;;11.90;99.90;;;;;;5013537;28;20041;-73
2021/05/12 00:21:28;;;;;;;1.80;1.70;;;11.90;99.90;;;;;;5013652;28;20029;-71
2021/05/12 00:23:59;;;;;;;1.80;1.65;;;11.90;99.90;;;;;;5013045;28;20037;-72
2021/05/12 00:26:27;;;;;;;2.55;1.25;;;12.00;99.90;;;;;;5013903;28;20543;-71
2021/05/12 00:28:53;;;;;;;2.45;1.33;;;11.90;99.90;;;;;;5013676;28;20026;-71
2021/05/12 00:31:19;;;;;;;4.60;1.67;;;11.90;99.90;;;;;;5013726;28;20088;-71
2021/05/12 00:33:44;;;;;;;1.60;1.50;;;12.00;99.90;;;;;;5013058;28;20443;-71
2021/05/12 00:36:10;;;;;;;1.95;1.40;;;12.00;99.90;;;;;;5013298;28;20026;-71
2021/05/12 00:38:35;;;;;;;2.55;1.58;;;12.00;99.90;;;;;;5013459;28;20129;-73
2021/05/12 00:41:04;;;;;;;1.50;1.40;;;12.10;99.90;;;;;;5013364;28;20030;-71
2021/05/12 00:43:30;;;;;;;1.48;1.38;;;12.00;99.90;;;;;;5012571;28;20034;-72
2021/05/12 00:45:56;;;;;;;1.52;1.33;;;12.00;99.90;;;;;;5013618;28;20056;-73
2021/05/12 00:48:21;;;;;;;5.43;1.40;;;11.80;99.90;;;;;;5013342;28;20025;-71
2021/05/12 00:50:47;;;;;;;2.78;1.50;;;11.90;99.90;;;;;;5012903;28;20022;-71
2021/05/12 00:53:13;;;;;;;1.15;1.02;;;11.60;99.90;;;;;;5012544;28;20033;-71
2021/05/12 00:55:38;;;;;;;1.30;1.30;;;11.50;99.90;;;;;;4995336;28;20034;-71
2021/05/12 00:58:04;;;;;;;1.95;1.42;;;11.50;99.90;;;;;;5011797;28;20029;-71
2021/05/12 01:00:30;;;;;;;1.83;1.73;;;11.60;99.90;;;;;;5014995;28;20105;-70
2021/05/12 01:02:56;;;;;;;1.77;1.67;;;11.60;99.90;;;;;;5013127;28;20117;-71
2021/05/12 01:05:30;;;;;;;2.33;1.83;;;11.50;99.90;;;;;;5012639;28;20026;-71
2021/05/12 01:07:55;;;;;;;1.73;1.60;;;11.50;99.90;;;;;;5012828;28;20033;-71
2021/05/12 01:10:21;;;;;;;2.30;1.80;;;11.40;99.90;;;;;;5013063;28;20027;-71
2021/05/12 01:12:47;;;;;;;2.13;2.00;;;11.50;99.90;;;;;;4994573;28;20026;-71
2021/05/12 01:15:13;;;;;;;1.80;1.70;;;11.50;99.90;;;;;;5012805;28;20022;-72
2021/05/12 01:17:40;;;;;;;1.75;1.63;;;11.40;99.90;;;;;;5012151;28;20523;-71
2021/05/12 01:20:07;;;;;;;2.35;1.50;;;11.50;99.90;;;;;;5012489;28;20034;-71
2021/05/12 01:22:33;;;;;;;1.60;1.50;;;11.50;99.90;;;;;;5012500;28;20100;-72
2021/05/12 01:24:59;;;;;;;1.40;1.30;;;11.50;99.90;;;;;;5012312;28;20053;-71
2021/05/12 01:27:24;;;;;;;1.25;1.20;;;11.50;99.90;;;;;;5013361;28;20026;-70
2021/05/12 01:29:50;;;;;;;2.10;1.50;;;11.60;99.90;;;;;;5012463;28;20029;-71
2021/05/12 01:32:17;;;;;;;1.10;1.00;;;11.60;99.90;;;;;;5012250;28;20026;-71
2021/05/12 01:34:43;;;;;;;1.85;1.10;;;11.50;99.90;;;;;;5011703;28;20080;-70
2021/05/12 01:37:09;;;;;;;1.80;1.00;;;11.50;99.90;;;;;;5012001;28;20038;-71
2021/05/12 01:39:35;;;;;;;0.80;0.80;;;11.50;99.90;;;;;;5012408;28;20040;-70
2021/05/12 01:42:01;;;;;;;1.13;0.70;;;11.40;99.90;;;;;;5012213;28;20054;-70
2021/05/12 01:44:27;;;;;;;0.75;0.75;;;11.40;99.90;;;;;;5011563;28;20456;-70
2021/05/12 01:46:52;;;;;;;0.77;0.75;;;11.40;99.90;;;;;;5012038;28;20109;-71
2021/05/12 01:49:18;;;;;;;1.45;1.17;;;11.40;99.90;;;;;;5012073;28;20034;-72
2021/05/12 01:51:45;;;;;;;2.20;0.90;;;11.40;99.90;;;;;;5011898;28;20041;-71
2021/05/12 01:54:12;;;;;;;0.68;0.68;;;11.40;99.90;;;;;;5011695;28;20029;-71
2021/05/12 01:56:39;;;;;;;4.18;0.80;;;11.40;99.90;;;;;;4994486;28;20029;-72
2021/05/12 01:59:06;;;;;;;1.38;0.55;;;11.40;99.90;;;;;;5012022;28;20072;-70
2021/05/12 02:01:32;;;;;;;2.67;0.60;;;11.40;99.90;;;;;;5011817;28;20033;-70
2021/05/12 02:04:16;;;;;;;1.25;0.60;;;11.40;99.90;;;;;;5011164;28;20029;-73
2021/05/12 02:06:42;;;;;;;0.50;0.50;;;11.30;99.90;;;;;;4994217;28;20033;-72
2021/05/12 02:09:08;;;;;;;1.35;0.70;;;11.20;99.90;;;;;;4993975;28;20436;-71
2021/05/12 02:11:38;;;;;;;1.15;0.60;;;11.20;99.90;;;;;;4994183;28;20026;-71
2021/05/12 02:14:05;;;;;;;0.50;0.50;;;11.10;99.90;;;;;;4993324;28;20028;-70
2021/05/12 02:16:31;;;;;;;3.88;0.60;;;11.00;99.90;;;;;;5011510;28;20097;-71
2021/05/12 02:18:56;;;;;;;3.63;0.60;;;11.10;99.90;;;;;;5011569;28;20124;-71
2021/05/12 02:21:22;;;;;;;0.85;0.70;;;11.20;99.90;;;;;;5011337;28;20026;-71
2021/05/12 02:23:47;;;;;;;1.77;0.90;;;11.20;99.90;;;;;;5010886;28;20038;-71
2021/05/12 02:26:13;;;;;;;1.48;0.70;;;11.10;99.90;;;;;;5011585;28;20029;-71
2021/05/12 02:28:39;;;;;;;0.60;0.60;;;11.10;99.90;;;;;;5011604;28;20473;-71
2021/05/12 02:31:04;;;;;;;1.58;0.80;;;11.10;99.90;;;;;;5012129;28;20064;-71
2021/05/12 02:33:30;;;;;;;2.50;0.63;;;11.10;99.90;;;;;;5015387;28;20041;-71
2021/05/12 02:35:56;;;;;;;5.57;0.88;;;11.00;99.90;;;;;;5017084;28;20040;-72
2021/05/12 02:38:23;;;;;;;2.55;0.90;;;11.10;99.90;;;;;;5011492;28;20460;-71
2021/05/12 02:40:49;;;;;;;1.00;0.80;;;11.10;99.90;;;;;;5011614;28;20121;-73
2021/05/12 02:43:14;;;;;;;1.33;0.80;;;11.00;99.90;;;;;;5011014;28;20064;-71
2021/05/12 02:45:40;;;;;;;3.35;1.10;;;11.10;99.90;;;;;;5011881;28;20029;-71
2021/05/12 02:48:06;;;;;;;4.18;1.10;;;11.10;99.90;;;;;;5011607;28;20030;-72
2021/05/12 02:50:37;;;;;;;2.15;1.23;;;11.00;99.90;;;;;;5011395;28;20022;-71
2021/05/12 02:53:04;;;;;;;1.95;0.90;;;11.00;99.90;;;;;;4998059;28;20110;-71
2021/05/12 02:55:31;;;;;;;1.85;0.95;;;11.00;99.90;;;;;;5017841;28;20021;-70
2021/05/12 02:57:57;;;;;;;1.63;1.00;;;11.00;99.90;;;;;;5014194;28;20037;-71
2021/05/12 03:00:25;;;;;;;0.77;0.77;;;11.00;99.90;;;;;;5011295;28;20053;-71
2021/05/12 03:02:51;;;;;;;3.58;1.15;;;11.00;99.90;;;;;;5010709;28;20069;-72
2021/05/12 03:05:17;;;;;;;1.15;1.15;;;11.10;99.90;;;;;;5026496;28;20411;-71
2021/05/12 03:07:43;;;;;;;2.25;0.98;;;11.10;99.90;;;;;;5011520;28;20123;-71
2021/05/12 03:10:12;;;;;;;3.50;1.20;;;11.00;99.90;;;;;;5012789;28;20082;-71
2021/05/12 03:12:38;;;;;;;1.30;1.17;;;11.10;99.90;;;;;;5011349;28;20022;-72
2021/05/12 03:15:08;;;;;;;1.45;1.20;;;11.00;99.90;;;;;;5026110;28;20022;-71
2021/05/12 03:17:34;;;;;;;2.95;1.98;;;10.90;99.90;;;;;;5010954;28;20041;-71
2021/05/12 03:20:00;;;;;;;4.93;1.58;;;10.90;99.90;;;;;;5011279;28;20025;-71
2021/05/12 03:22:25;;;;;;;4.32;1.40;;;10.90;99.90;;;;;;4996768;28;20061;-70
2021/05/12 03:24:51;;;;;;;2.55;1.52;;;10.90;99.90;;;;;;5013815;28;20014;-72
2021/05/12 03:27:17;;;;;;;2.15;1.50;;;11.00;99.90;;;;;;5014725;28;20033;-72
2021/05/12 03:29:42;;;;;;;2.30;1.55;;;11.00;99.90;;;;;;5015260;28;20030;-71
2021/05/12 03:32:08;;;;;;;2.50;1.45;;;11.00;99.90;;;;;;5014646;28;20037;-72
2021/05/12 03:34:34;;;;;;;1.25;1.20;;;11.00;99.90;;;;;;5014161;28;20022;-73
2021/05/12 03:36:59;;;;;;;1.95;1.50;;;10.90;99.90;;;;;;5014244;28;20018;-72
2021/05/12 03:39:25;;;;;;;2.05;1.48;;;11.00;99.90;;;;;;4996770;28;20396;-72
2021/05/12 03:41:51;;;;;;;3.17;1.20;;;10.90;99.90;;;;;;4996886;28;20080;-72
2021/05/12 03:44:16;;;;;;;1.83;1.40;;;10.90;99.90;;;;;;4996084;28;20125;-72
2021/05/12 03:46:42;;;;;;;2.45;1.52;;;11.00;99.90;;;;;;5014377;28;20578;-71
2021/05/12 03:49:08;;;;;;;1.60;1.50;;;11.00;99.90;;;;;;4996486;28;20064;-71
2021/05/12 03:51:33;;;;;;;3.05;1.70;;;11.00;99.90;;;;;;5013961;28;20022;-72
2021/05/12 03:53:59;;;;;;;3.47;1.90;;;11.10;99.90;;;;;;4995862;28;20038;-72
2021/05/12 03:56:25;;;;;;;1.90;1.60;;;11.10;99.90;;;;;;5014167;28;20069;-71
2021/05/12 03:58:50;;;;;;;1.98;1.67;;;11.10;99.90;;;;;;4996332;28;20040;-71
2021/05/12 04:01:16;;;;;;;2.38;1.48;;;11.00;99.90;;;;;;5014146;28;20438;-71
2021/05/12 04:03:42;;;;;;;1.40;1.30;;;11.00;99.90;;;;;;4995749;28;20488;-71
2021/05/12 04:06:07;;;;;;;2.78;1.33;;;11.00;99.90;;;;;;5013726;28;20433;-71
2021/05/12 04:08:33;;;;;;;1.40;1.30;;;11.10;99.90;;;;;;5013733;28;20030;-72
2021/05/12 04:10:59;;;;;;;4.00;1.33;;;11.00;99.90;;;;;;5013873;28;20025;-71
2021/05/12 04:13:24;;;;;;;2.72;1.50;;;10.90;99.90;;;;;;5013430;28;20029;-71
2021/05/12 04:15:50;;;;;;;2.55;1.80;;;10.80;99.90;;;;;;5017248;28;20029;-71
2021/05/12 04:18:16;;;;;;;2.65;2.13;;;10.90;99.90;;;;;;5016843;28;20060;-72
2021/05/12 04:20:42;;;;;;;2.30;2.03;;;11.10;99.90;;;;;;5015265;28;20029;-71
2021/05/12 04:23:08;;;;;;;5.03;2.58;;;11.10;99.90;;;;;;5012749;28;20502;-71
2021/05/12 04:25:33;;;;;;;3.90;2.45;;;11.00;99.90;;;;;;5013792;28;20025;-72
2021/05/12 04:27:59;;;;;;;2.80;2.42;;;10.90;99.90;;;;;;5013866;28;20608;-70
2021/05/12 04:30:27;;;;;;;3.85;2.30;;;11.00;99.90;;;;;;5005652;28;20565;-72
2021/05/12 04:32:55;;;;;;;3.00;2.47;;;10.90;99.90;;;;;;5012743;28;20116;-73
2021/05/12 04:35:21;;;;;;;5.07;2.65;;;11.00;99.90;;;;;;5018096;28;20380;-72
2021/05/12 04:37:48;;;;;;;4.03;2.38;;;11.00;99.90;;;;;;5011816;28;20022;-72
2021/05/12 04:40:14;;;;;;;5.30;2.60;;;11.00;99.90;;;;;;5011614;28;20088;-72
2021/05/12 04:42:40;;;;;;;4.50;3.03;;;11.00;99.90;;;;;;5010391;28;20441;-72
2021/05/12 04:45:08;;;;;;;1.65;1.48;;;10.90;99.90;;;;;;5011384;28;20092;-72
2021/05/12 04:47:34;;;;;;;1.63;1.52;;;10.90;99.90;;;;;;5013822;28;20018;-72
2021/05/12 04:50:00;;;;;;;3.03;1.77;;;10.80;99.90;;;;;;5030960;28;20040;-71
2021/05/12 04:52:25;;;;;;;1.50;1.40;;;10.80;99.90;;;;;;5030304;28;20108;-72
2021/05/12 04:54:51;;;;;;;2.47;1.30;;;10.90;99.90;;;;;;5030238;28;20436;-71
2021/05/12 04:57:17;;;;;;;1.42;1.33;;;10.80;99.90;;;;;;5030929;28;20455;-71
2021/05/12 04:59:43;;;;;;;2.70;1.77;;;10.80;99.90;;;;;;5012991;28;20124;-72
2021/05/12 05:02:10;;;;;;;1.20;1.10;;;10.90;99.90;;;;;;5030014;28;20104;-71
2021/05/12 05:04:39;;;;;;;2.30;1.33;;;10.90;99.90;;;;;;5030228;28;20013;-72
2021/05/12 05:07:04;;;;;;;2.75;1.60;;;10.90;99.90;;;;;;5030276;28;20499;-71
2021/05/12 05:09:30;;;;;;;2.45;1.38;;;11.00;99.90;;;;;;5030954;28;20037;-71
2021/05/12 05:11:56;;;;;;;3.05;1.25;;;10.90;99.90;;;;;;5030372;28;20037;-72
2021/05/12 05:14:21;;;;;;;6.20;1.70;;;10.90;99.90;;;;;;5030681;28;20109;-75
2021/05/12 05:16:48;;;;;;;1.40;1.30;;;10.90;99.90;;;;;;5014481;28;20049;-75
2021/05/12 05:19:13;;;;;;;26.50;1.98;;;11.30;99.90;;;;;;5014742;28;20022;-77
2021/05/12 05:21:40;;;;;;;0.70;0.50;;;11.70;99.90;;;;;;5015098;28;20068;-76
2021/05/12 05:24:08;;;;;;;0.70;0.50;;;12.00;99.90;;;;;;5024784;28;20030;-74
2021/05/12 05:26:34;;;;;;;0.50;0.50;;;12.20;99.90;;;;;;5015029;28;20499;-73
2021/05/12 05:28:59;;;;;;;0.43;0.43;;;11.80;99.90;;;;;;5010746;28;20026;-71
2021/05/12 05:31:25;;;;;;;0.30;0.30;;;11.60;99.90;;;;;;4992501;28;20049;-71
2021/05/12 05:33:50;;;;;;;0.50;0.50;;;11.30;99.90;;;;;;4990529;28;20030;-72
2021/05/12 05:36:16;;;;;;;2.40;0.60;;;11.20;99.90;;;;;;5010902;28;20678;-72
2021/05/12 05:38:42;;;;;;;0.40;0.40;;;10.90;99.90;;;;;;5015528;28;20066;-71
2021/05/12 05:41:08;;;;;;;0.85;0.50;;;10.70;99.90;;;;;;4990961;28;20030;-73
2021/05/12 05:43:33;;;;;;;0.20;0.20;;;10.80;99.90;;;;;;4989587;28;20034;-72
2021/05/12 05:45:59;;;;;;;1.33;0.50;;;10.80;99.90;;;;;;4990973;28;20022;-72
2021/05/12 05:48:25;;;;;;;2.15;0.40;;;10.90;99.90;;;;;;5002993;28;20029;-74
2021/05/12 05:50:50;;;;;;;1.55;0.47;;;10.90;99.90;;;;;;5009997;28;20042;-73
2021/05/12 05:53:20;;;;;;;1.13;0.40;;;10.80;99.90;;;;;;5009335;28;20022;-73
2021/05/12 05:55:46;;;;;;;4.03;0.60;;;10.80;99.90;;;;;;4992725;28;20048;-71
2021/05/12 05:58:12;;;;;;;0.50;0.50;;;10.80;99.90;;;;;;5010562;28;20030;-73
2021/05/12 06:00:40;;;;;;;1.20;0.45;;;10.80;99.90;;;;;;5010183;28;20033;-74
2021/05/12 06:03:07;;;;;;;2.08;0.50;;;10.80;99.90;;;;;;4991522;28;20037;-73
2021/05/12 06:05:32;;;;;;;0.50;0.45;;;10.90;99.90;;;;;;5009934;28;20026;-72
2021/05/12 06:07:58;;;;;;;1.77;0.50;;;10.90;99.90;;;;;;5009502;28;20032;-71
2021/05/12 06:10:23;;;;;;;2.80;0.60;;;10.90;99.90;;;;;;5009900;28;20034;-69
2021/05/12 06:12:51;;;;;;;1.10;0.65;;;10.80;99.90;;;;;;5010408;28;20025;-71
2021/05/12 06:15:22;;;;;;;1.80;0.70;;;10.80;99.90;;;;;;5009877;28;20433;-72
2021/05/12 06:17:48;;;;;;;1.90;1.13;;;10.90;99.90;;;;;;5001266;28;20114;-70
2021/05/12 06:20:15;;;;;;;2.63;0.70;;;10.90;99.90;;;;;;5010459;28;20113;-70
2021/05/12 06:22:42;;;;;;;1.88;0.70;;;10.90;99.90;;;;;;4997330;28;20108;-71
2021/05/12 06:25:10;;;;;;;1.30;0.70;;;10.90;99.90;;;;;;5030693;28;20025;-71
2021/05/12 06:27:37;;;;;;;2.83;0.70;;;10.90;99.90;;;;;;5031094;28;20032;-71
2021/05/12 06:30:04;;;;;;;5.07;1.27;;;10.80;99.90;;;;;;5016307;28;20108;-71
2021/05/12 06:32:30;;;;;;;3.42;0.80;;;10.70;99.90;;;;;;5011111;28;20400;-72
2021/05/12 06:34:56;;;;;;;3.45;0.80;;;10.50;99.90;;;;;;5015383;28;20022;-71
2021/05/12 06:37:22;;;;;;;4.35;1.00;;;10.60;99.90;;;;;;5012946;28;20033;-71
2021/05/12 06:39:50;;;;;;;3.88;1.10;;;10.80;99.90;;;;;;5031051;28;20041;-71
2021/05/12 06:42:16;;;;;;;2.50;1.20;;;10.90;99.90;;;;;;5030858;28;20387;-70
2021/05/12 06:44:42;;;;;;;2.60;1.38;;;11.00;99.90;;;;;;5029987;28;20068;-71
2021/05/12 06:47:08;;;;;;;2.28;1.20;;;10.90;99.90;;;;;;5011447;28;20034;-70
2021/05/12 06:49:34;;;;;;;4.45;1.17;;;10.80;99.90;;;;;;5011905;28;20046;-71
2021/05/12 06:51:59;;;;;;;9.68;1.70;;;10.80;99.90;;;;;;5011582;28;20057;-70
2021/05/12 06:54:25;;;;;;;2.45;0.95;;;10.80;99.90;;;;;;5010973;28;20030;-71
2021/05/12 06:56:51;;;;;;;2.55;1.25;;;10.90;99.90;;;;;;5015188;28;20441;-70
2021/05/12 06:59:16;;;;;;;1.80;1.30;;;10.90;99.90;;;;;;5015169;28;20101;-72
2021/05/12 07:01:42;;;;;;;4.03;2.03;;;10.90;99.90;;;;;;5015089;28;20022;-72
2021/05/12 07:04:08;;;;;;;2.67;1.42;;;10.90;99.90;;;;;;5014235;28;20430;-71
2021/05/12 07:06:33;;;;;;;4.72;1.38;;;10.90;99.90;;;;;;5014907;28;20026;-71
2021/05/12 07:08:59;;;;;;;1.80;1.10;;;11.00;99.90;;;;;;4997522;28;20026;-72
2021/05/12 07:11:25;;;;;;;1.40;1.00;;;11.00;99.90;;;;;;5019886;28;20029;-72
2021/05/12 07:13:53;;;;;;;2.03;1.10;;;11.00;99.90;;;;;;5034149;28;20028;-72
2021/05/12 07:16:19;;;;;;;2.78;1.10;;;11.00;99.90;;;;;;5034204;28;20538;-74
2021/05/12 07:18:45;;;;;;;2.35;1.10;;;10.90;99.90;;;;;;5019674;28;20034;-74
2021/05/12 07:21:11;;;;;;;2.05;1.20;;;11.00;99.90;;;;;;5014653;28;20026;-74
2021/05/12 07:23:38;;;;;;;1.55;1.10;;;10.90;99.90;;;;;;5013849;28;20480;-74
2021/05/12 07:26:04;;;;;;;2.38;0.93;;;10.90;99.90;;;;;;5014524;28;20025;-73
2021/05/12 07:28:30;;;;;;;1.83;1.42;;;10.90;99.90;;;;;;5013846;28;20068;-72
2021/05/12 07:30:56;;;;;;;2.00;1.25;;;11.10;99.90;;;;;;4997171;28;20030;-70
2021/05/12 07:33:22;;;;;;;4.32;1.50;;;10.90;99.90;;;;;;5013046;28;20358;-72
2021/05/12 07:35:47;;;;;;;3.47;1.55;;;11.00;99.90;;;;;;5014516;28;20033;-72
2021/05/12 07:38:13;;;;;;;6.43;1.40;;;11.00;99.90;;;;;;5014459;28;20030;-72
2021/05/12 07:40:39;;;;;;;2.03;1.52;;;11.00;99.90;;;;;;5015029;28;20026;-71
2021/05/12 07:43:08;;;;;;;7.03;2.65;;;10.80;99.90;;;;;;5013965;28;20118;-73
2021/05/12 07:45:36;;;;;;;4.50;1.50;;;10.90;99.90;;;;;;5014605;28;20029;-72
2021/05/12 07:48:05;;;;;;;1.33;1.20;;;10.90;99.90;;;;;;5014517;28;20014;-72
2021/05/12 07:50:31;;;;;;;3.30;1.67;;;10.90;99.90;;;;;;5014497;28;20076;-71
2021/05/12 07:52:59;;;;;;;3.35;1.70;;;11.10;99.90;;;;;;5013397;28;20076;-74
2021/05/12 07:55:25;;;;;;;3.28;1.70;;;11.00;99.90;;;;;;5013745;28;20017;-69
2021/05/12 07:57:50;;;;;;;4.32;1.20;;;11.00;99.90;;;;;;5013407;28;20041;-73
2021/05/12 08:00:17;;;;;;;6.93;1.95;;;11.10;99.90;;;;;;5018483;28;20030;-71
2021/05/12 08:02:42;;;;;;;3.85;1.40;;;11.30;99.90;;;;;;5021632;28;20055;-72
2021/05/12 08:05:08;;;;;;;3.42;1.73;;;11.10;99.90;;;;;;5027626;28;20028;-70
2021/05/12 08:07:36;;;;;;;1.65;1.42;;;10.90;99.90;;;;;;5033137;28;20022;-73
2021/05/12 08:10:02;;;;;;;1.98;1.70;;;11.20;99.90;;;;;;5016049;28;20032;-72
2021/05/12 08:12:27;;;;;;;2.03;1.65;;;11.40;99.90;;;;;;5015482;28;20029;-72
2021/05/12 08:14:53;;;;;;;1.70;1.20;;;11.70;99.90;;;;;;5032947;28;20070;-73
2021/05/12 08:17:18;;;;;;;3.35;1.85;;;11.80;99.90;;;;;;5031182;28;20904;-72
2021/05/12 08:19:44;;;;;;;3.05;1.75;;;11.90;99.90;;;;;;5014315;28;20650;-71
2021/05/12 08:22:10;;;;;;;3.40;1.52;;;11.90;99.90;;;;;;4996562;28;20493;-71
2021/05/12 08:24:35;;;;;;;1.75;1.60;;;11.90;99.90;;;;;;5013800;28;20040;-73
2021/05/12 08:27:02;;;;;;;2.30;1.50;;;12.00;99.90;;;;;;5014292;28;20029;-72
2021/05/12 08:29:32;;;;;;;1.85;1.48;;;12.10;99.90;;;;;;5014687;28;20408;-72
2021/05/12 08:31:59;;;;;;;4.18;1.30;;;12.20;99.90;;;;;;5015939;28;20026;-73
2021/05/12 08:34:26;;;;;;;1.70;1.40;;;12.40;99.90;;;;;;5014716;28;20532;-72
2021/05/12 08:36:53;;;;;;;3.72;1.63;;;12.10;99.90;;;;;;5015388;28;20026;-71
2021/05/12 08:39:20;;;;;;;2.75;1.80;;;11.90;99.90;;;;;;4996228;28;20053;-72
2021/05/12 08:41:48;;;;;;;12.38;1.92;;;12.20;99.90;;;;;;4992185;28;20034;-72
2021/05/12 08:44:14;;;;;;;3.85;1.58;;;12.30;99.90;;;;;;4993405;28;20100;-72
2021/05/12 08:46:41;;;;;;;3.15;1.40;;;12.40;99.90;;;;;;4994222;28;20496;-73
2021/05/12 08:49:08;;;;;;;3.60;1.33;;;12.50;99.90;;;;;;4988396;28;20022;-73
2021/05/12 08:51:34;;;;;;;4.68;1.50;;;12.70;99.90;;;;;;4993760;28;20483;-72
2021/05/12 08:54:00;;;;;;;3.55;1.88;;;12.60;99.90;;;;;;4992966;28;20168;-73
2021/05/12 08:56:25;;;;;;;2.88;1.38;;;12.70;99.90;;;;;;4993766;28;20480;-73
2021/05/12 08:58:51;;;;;;;3.60;1.70;;;12.90;99.90;;;;;;4994176;28;20037;-72
2021/05/12 09:01:17;;;;;;;4.15;1.30;;;13.00;99.90;;;;;;4994136;28;20057;-72
2021/05/12 09:03:44;;;;;;;6.57;1.80;;;13.20;99.90;;;;;;4992838;28;20030;-72
2021/05/12 09:06:10;;;;;;;4.25;1.33;;;13.00;99.90;;;;;;4993510;28;20026;-71
2021/05/12 09:08:37;;;;;;;3.35;1.33;;;13.00;99.90;;;;;;4992786;28;20084;-72
2021/05/12 09:11:03;;;;;;;2.15;1.20;;;12.80;99.90;;;;;;4996687;28;20023;-74
2021/05/12 09:13:38;;;;;;;2.95;1.30;;;12.80;99.90;;;;;;5014134;28;20498;-75
2021/05/12 09:16:24;;;;;;;5.07;1.92;;;13.10;99.90;;;;;;5032707;28;20755;-72
2021/05/12 09:19:11;;;;;;;2.78;0.90;;;13.10;99.90;;;;;;5015292;28;20394;-72
2021/05/12 09:21:47;;;;;;;6.90;1.40;;;13.00;99.90;;;;;;5013614;28;20453;-73
2021/05/12 09:24:21;;;;;;;3.45;1.40;;;13.00;99.90;;;;;;5017657;28;20111;-73
2021/05/12 09:26:47;;;;;;;6.80;2.10;;;13.20;99.90;;;;;;5016175;28;20021;-73
2021/05/12 09:29:34;;;;;;;3.70;1.65;;;13.30;99.90;;;;;;5012879;28;20030;-72
2021/05/12 09:32:04;;;;;;;6.75;1.98;;;13.30;99.90;;;;;;5013257;28;20029;-72
2021/05/12 09:34:47;;;;;;;4.93;1.50;;;13.20;99.90;;;;;;5012138;28;20401;-72
2021/05/12 09:37:32;;;;;;;3.00;1.25;;;13.40;99.90;;;;;;5012079;28;20120;-72
2021/05/12 09:40:06;;;;;;;1.67;0.93;;;13.20;99.90;;;;;;5088516;27;20352;-72
2021/05/12 09:42:32;;;;;;;2.88;0.90;;;13.40;99.90;;;;;;5089856;28;20402;-73
2021/05/12 09:45:16;;;;;;;2.25;1.00;;;13.60;99.90;;;;;;5088424;28;20024;-73
2021/05/12 09:47:43;;;;;;;4.32;0.98;;;13.50;99.90;;;;;;5082749;28;20067;-71
2021/05/12 09:50:17;;;;;;;2.50;1.13;;;13.50;99.90;;;;;;5068540;28;20051;-72
2021/05/12 09:52:44;;;;;;;3.33;0.80;;;13.10;99.90;;;;;;5067692;28;20096;-73
2021/05/12 09:55:11;;;;;;;1.35;1.25;;;12.90;99.90;;;;;;5068782;28;20552;-73
2021/05/12 09:58:00;;;;;;;3.10;1.20;;;12.70;99.90;;;;;;5088489;28;20034;-74
2021/05/12 10:00:48;;;;;;;2.35;1.13;;;12.90;99.90;;;;;;5089199;28;20103;-75
2021/05/12 10:03:14;;;;;;;2.38;1.13;;;13.80;99.90;;;;;;5088584;28;20059;-76
2021/05/12 10:06:04;;;;;;;0.88;0.65;;;14.50;99.90;;;;;;5089539;28;20077;-76
2021/05/12 10:08:34;;;;;;;4.88;1.08;;;14.40;99.90;;;;;;5089985;28;20128;-75
2021/05/12 10:11:05;;;;;;;1.63;1.20;;;14.30;99.90;;;;;;5083025;28;20075;-74
2021/05/12 10:13:33;;;;;;;1.77;0.70;;;14.10;99.90;;;;;;5087857;28;20047;-76
2021/05/12 10:16:00;;;;;;;6.03;1.10;;;13.80;99.90;;;;;;5094471;28;20524;-74
2021/05/12 10:18:25;;;;;;;2.13;0.90;;;13.70;99.90;;;;;;5079441;28;20107;-72
2021/05/12 10:20:58;;;;;;;1.60;0.90;;;13.50;99.90;;;;;;5068194;28;20044;-75
2021/05/12 10:23:25;;;;;;;3.72;1.20;;;13.40;99.90;;;;;;5071200;28;20023;-73
2021/05/12 10:25:52;;;;;;;2.20;1.00;;;13.10;99.90;;;;;;5082734;28;20013;-74
2021/05/12 10:28:18;;;;;;;5.15;1.10;;;13.20;99.90;;;;;;5067796;28;20029;-74
2021/05/12 10:30:47;;;;;;;2.83;1.10;;;13.50;99.90;;;;;;5067521;28;20112;-73
2021/05/12 10:33:13;;;;;;;4.55;1.48;;;13.50;99.90;;;;;;5066936;28;20063;-74
2021/05/12 10:35:39;;;;;;;2.28;0.90;;;13.80;99.90;;;;;;5067305;28;20049;-73
2021/05/12 10:38:08;;;;;;;3.42;0.93;;;13.90;99.90;;;;;;5065220;28;20060;-73
2021/05/12 10:40:40;;;;;;;3.92;1.00;;;14.00;99.90;;;;;;5067545;28;20570;-73
2021/05/12 10:43:14;;;;;;;3.65;1.52;;;13.90;99.90;;;;;;5067043;28;20021;-72
2021/05/12 10:45:57;;;;;;;1.80;0.85;;;13.90;99.90;;;;;;5067520;28;20013;-73
2021/05/12 10:48:47;;;;;;;4.20;1.10;;;13.90;99.90;;;;;;5066609;28;20491;-76
2021/05/12 10:51:26;;;;;;;2.92;1.00;;;13.80;99.90;;;;;;5055523;28;20040;-74
2021/05/12 10:53:58;;;;;;;10.82;1.15;;;13.80;99.90;;;;;;5053395;28;20160;-73
2021/05/12 10:56:34;;;;;;;5.65;1.60;;;14.10;99.90;;;;;;5054266;28;20108;-75
2021/05/12 10:59:03;;;;;;;4.80;1.08;;;14.20;99.90;;;;;;5053568;28;20029;-74
2021/05/12 11:01:43;;;;;;;5.97;1.30;;;14.10;99.90;;;;;;5053920;28;20017;-73
2021/05/12 11:04:14;;;;;;;15.60;2.00;;;13.80;99.90;;;;;;5053341;28;20549;-72
2021/05/12 11:06:39;;;;;;;7.15;1.63;;;13.60;99.90;;;;;;5053642;28;20043;-73
2021/05/12 11:09:07;;;;;;;1.33;1.05;;;13.70;99.90;;;;;;5053445;28;20036;-73
2021/05/12 11:11:53;;;;;;;2.50;1.00;;;13.50;99.90;;;;;;5059645;28;20021;-73
2021/05/12 11:14:32;;;;;;;5.57;2.40;;;13.50;99.90;;;;;;5072797;28;20115;-72
2021/05/12 11:17:04;;;;;;;3.20;1.70;;;13.20;99.90;;;;;;5072863;28;20048;-70
2021/05/12 11:22:35;;;;;;;4.55;1.48;;;13.30;99.90;;;;;;5053965;28;20051;-72
2021/05/12 11:33:10;;;;;;;7.18;1.42;;;15.10;99.90;;;;;;5071098;28;20023;-72
2021/05/12 11:35:45;;;;;;;2.70;1.10;;;15.00;99.90;;;;;;5074241;28;20037;-74
2021/05/12 11:38:15;;;;;;;6.57;1.95;;;14.80;99.90;;;;;;5073714;28;20036;-74
2021/05/12 11:41:06;;;;;;;4.22;1.40;;;14.90;99.90;;;;;;5082650;28;20016;-73
2021/05/12 11:43:33;;;;;;;4.45;1.20;;;15.00;99.90;;;;;;5088622;28;20421;-74
2021/05/12 11:46:11;;;;;;;2.97;1.33;;;15.00;99.90;;;;;;5075724;28;20027;-73
2021/05/12 11:48:42;;;;;;;2.80;1.38;;;15.00;99.90;;;;;;5059742;28;20047;-71
2021/05/12 11:51:09;;;;;;;2.35;1.35;;;14.70;99.90;;;;;;5063643;28;20025;-72
2021/05/12 11:53:37;;;;;;;21.40;14.07;;;14.30;99.90;;;;;;5065415;28;20372;-73
2021/05/12 11:56:04;;;;;;;4.30;1.90;;;14.70;99.90;;;;;;5052730;28;20064;-72
2021/05/12 11:58:29;;;;;;;4.28;1.42;;;14.30;99.90;;;;;;5064902;28;20025;-72
2021/05/12 12:01:08;;;;;;;52.83;33.42;;;14.30;99.90;;;;;;5072756;28;20382;-73
2021/05/12 12:03:39;;;;;;;4.18;1.45;;;14.60;99.90;;;;;;5071553;28;20026;-72
2021/05/12 12:06:05;;;;;;;5.13;1.52;;;14.70;99.90;;;;;;5073026;28;20028;-75
2021/05/12 12:08:32;;;;;;;5.85;1.60;;;14.80;99.90;;;;;;5072372;28;20044;-73
2021/05/12 12:11:06;;;;;;;2.33;1.30;;;15.00;99.90;;;;;;5072709;28;20032;-74
2021/05/12 12:13:32;;;;;;;1.98;1.17;;;14.70;99.90;;;;;;5071714;28;20024;-74
2021/05/12 12:15:57;;;;;;;3.35;1.30;;;14.60;99.90;;;;;;5070746;28;20131;-73
2021/05/12 12:18:38;;;;;;;6.28;1.42;;;14.50;99.90;;;;;;5065813;28;20021;-76
2021/05/12 12:21:08;;;;;;;2.15;1.13;;;14.40;99.90;;;;;;5073588;28;20052;-78
2021/05/12 12:23:37;;;;;;;4.13;1.60;;;14.10;99.90;;;;;;5072404;28;20638;-78
2021/05/12 12:26:18;;;;;;;3.72;1.52;;;13.80;99.90;;;;;;5063911;28;20035;-77
2021/05/12 12:28:54;;;;;;;3.63;1.45;;;14.00;99.90;;;;;;5067064;28;20768;-79
2021/05/12 12:31:29;;;;;;;4.97;1.35;;;14.20;99.90;;;;;;5064507;28;20040;-78
2021/05/12 12:34:08;;;;;;;2.97;1.52;;;14.30;99.90;;;;;;5061148;28;20024;-77
2021/05/12 12:36:48;;;;;;;1.95;1.33;;;14.50;99.90;;;;;;5069420;28;20052;-79
2021/05/12 12:39:13;;;;;;;7.18;2.22;;;14.50;99.90;;;;;;5062839;28;20024;-79
2021/05/12 12:41:39;;;;;;;3.30;1.70;;;14.60;99.90;;;;;;5062049;28;20024;-77
2021/05/12 12:44:05;;;;;;;2.90;1.40;;;14.70;99.90;;;;;;5062420;28;20032;-76
2021/05/12 12:46:31;;;;;;;5.20;1.70;;;14.80;99.90;;;;;;5065442;28;20021;-80
2021/05/12 12:48:57;;;;;;;7.15;1.60;;;14.50;99.90;;;;;;5062161;28;20122;-77
2021/05/12 12:51:41;;;;;;;6.28;1.27;;;14.40;99.90;;;;;;5063085;28;20121;-77
2021/05/12 12:54:07;;;;;;;2.40;1.38;;;14.10;99.90;;;;;;5069343;28;20040;-77
2021/05/12 12:56:34;;;;;;;2.10;1.30;;;13.90;99.90;;;;;;5080199;28;20115;-78
2021/05/12 12:59:03;;;;;;;2.55;1.25;;;14.00;99.90;;;;;;5079778;28;20034;-77
2021/05/12 13:01:36;;;;;;;4.25;1.48;;;13.90;99.90;;;;;;5084325;28;20021;-76